createdAt,value
2022-10-18T00:00:04.771Z,0
2022-10-18T00:01:04.800Z,0
2022-10-18T00:02:04.863Z,0
2022-10-18T00:03:04.771Z,0
2022-10-18T00:04:04.764Z,0
2022-10-18T00:05:04.756Z,0
2022-10-18T00:06:04.762Z,0
2022-10-18T00:07:04.790Z,0
2022-10-18T00:08:04.779Z,0
2022-10-18T00:09:04.764Z,0
2022-10-18T00:10:04.779Z,0
2022-10-18T00:11:04.781Z,0
2022-10-18T00:12:04.824Z,0.8
2022-10-18T00:13:04.787Z,0.8
2022-10-18T00:14:04.773Z,0.6
2022-10-18T00:15:04.774Z,0.5
2022-10-18T00:16:04.807Z,0.6
2022-10-18T00:17:04.828Z,0.8
2022-10-18T00:18:04.805Z,0
2022-10-18T00:19:04.813Z,0
2022-10-18T00:20:04.838Z,0
2022-10-18T00:21:04.813Z,0
2022-10-18T00:22:04.822Z,0
2022-10-18T00:23:04.830Z,0
2022-10-18T00:24:04.816Z,0
2022-10-18T00:25:04.850Z,0
2022-10-18T00:26:04.815Z,0
2022-10-18T00:27:04.848Z,0
2022-10-18T00:28:04.843Z,0
2022-10-18T00:29:04.829Z,0
2022-10-18T00:30:04.832Z,0
2022-10-18T00:31:04.824Z,0
2022-10-18T00:32:04.836Z,0
2022-10-18T00:33:04.856Z,0
2022-10-18T00:34:04.873Z,0
2022-10-18T00:35:04.851Z,0
2022-10-18T00:36:04.869Z,0
2022-10-18T00:37:04.877Z,0
2022-10-18T00:38:04.900Z,0
2022-10-18T00:39:04.866Z,0
2022-10-18T00:40:04.874Z,0
2022-10-18T00:41:04.915Z,0
2022-10-18T00:42:04.899Z,0
2022-10-18T00:43:04.892Z,0
2022-10-18T00:44:04.873Z,0
2022-10-18T00:45:04.869Z,0
2022-10-18T00:46:04.881Z,0
2022-10-18T00:47:04.872Z,0
2022-10-18T00:48:04.912Z,0
2022-10-18T00:49:04.911Z,0
2022-10-18T00:50:04.895Z,0
2022-10-18T00:51:04.923Z,0
2022-10-18T00:52:04.892Z,0
2022-10-18T00:53:04.947Z,0
2022-10-18T00:54:04.893Z,0
2022-10-18T00:55:04.921Z,0
2022-10-18T00:56:04.902Z,0
2022-10-18T00:57:05.094Z,0
2022-10-18T00:58:04.921Z,0.5
2022-10-18T00:59:04.902Z,0
2022-10-18T01:00:04.906Z,0
2022-10-18T01:01:04.933Z,0.7
2022-10-18T01:02:04.977Z,0
2022-10-18T01:03:04.923Z,0
2022-10-18T01:04:04.918Z,0
2022-10-18T01:05:04.959Z,0
2022-10-18T01:06:04.924Z,0.8
2022-10-18T01:07:04.936Z,0.5
2022-10-18T01:08:04.949Z,0.6
2022-10-18T01:09:04.954Z,0
2022-10-18T01:10:04.927Z,0.5
2022-10-18T01:11:04.917Z,0.7
2022-10-18T01:12:04.930Z,0.5
2022-10-18T01:13:04.933Z,0.8
2022-10-18T01:14:04.925Z,0
2022-10-18T01:15:04.941Z,0
2022-10-18T01:16:04.949Z,0
2022-10-18T01:17:04.957Z,0
2022-10-18T01:18:04.963Z,0
2022-10-18T01:19:04.946Z,0
2022-10-18T01:20:04.965Z,0
2022-10-18T01:21:04.979Z,0
2022-10-18T01:22:04.958Z,0
2022-10-18T01:23:05.007Z,0
2022-10-18T01:24:04.963Z,0
2022-10-18T01:25:04.968Z,0
2022-10-18T01:26:04.972Z,0
2022-10-18T01:27:04.956Z,0
2022-10-18T01:28:04.970Z,0
2022-10-18T01:29:05.048Z,0
2022-10-18T01:30:04.978Z,0
2022-10-18T01:31:04.978Z,0
2022-10-18T01:32:04.972Z,0
2022-10-18T01:33:04.984Z,0
2022-10-18T01:34:04.996Z,0
2022-10-18T01:35:04.978Z,0
2022-10-18T01:36:04.977Z,0
2022-10-18T01:37:05.006Z,0
2022-10-18T01:38:04.988Z,0
2022-10-18T01:39:04.988Z,0
2022-10-18T01:40:04.999Z,0
2022-10-18T01:41:04.991Z,0
2022-10-18T01:42:04.982Z,0
2022-10-18T01:44:04.988Z,0
2022-10-18T01:45:04.992Z,0
2022-10-18T01:46:04.987Z,0
2022-10-18T01:47:04.982Z,0
2022-10-18T01:48:04.996Z,0
2022-10-18T01:49:05.002Z,0
2022-10-18T01:50:05.021Z,0
2022-10-18T01:51:05.016Z,0
2022-10-18T01:52:05.069Z,0
2022-10-18T01:53:05.037Z,0
2022-10-18T01:54:05.018Z,0
2022-10-18T01:55:05.012Z,0
2022-10-18T01:56:05.029Z,0
2022-10-18T01:57:05.018Z,0
2022-10-18T01:58:05.042Z,0
2022-10-18T01:59:05.030Z,0
2022-10-18T02:00:05.021Z,1.2
2022-10-18T02:01:05.073Z,0.8
2022-10-18T02:02:05.048Z,1.1
2022-10-18T02:03:05.055Z,0.6
2022-10-18T02:04:05.034Z,0.5
2022-10-18T02:05:05.043Z,0
2022-10-18T02:06:05.040Z,0.5
2022-10-18T02:07:05.050Z,0
2022-10-18T02:08:12.487Z,0
2022-10-18T02:09:05.061Z,0
2022-10-18T02:10:05.104Z,0.6
2022-10-18T02:11:05.052Z,0
2022-10-18T02:12:05.097Z,0
2022-10-18T02:13:05.090Z,0
2022-10-18T02:14:05.058Z,0
2022-10-18T02:15:05.057Z,0
2022-10-18T02:16:05.071Z,0
2022-10-18T02:17:05.062Z,0
2022-10-18T02:18:05.083Z,0
2022-10-18T02:19:05.064Z,0
2022-10-18T02:20:05.061Z,0
2022-10-18T02:21:05.067Z,0
2022-10-18T02:22:05.075Z,0
2022-10-18T02:23:05.091Z,0
2022-10-18T02:24:05.067Z,0
2022-10-18T02:25:05.100Z,0
2022-10-18T02:26:05.071Z,0
2022-10-18T02:27:05.082Z,0
2022-10-18T02:28:05.090Z,0
2022-10-18T02:29:05.077Z,0
2022-10-18T02:30:05.086Z,0
2022-10-18T02:31:05.081Z,0
2022-10-18T02:32:05.080Z,0
2022-10-18T02:33:05.109Z,0
2022-10-18T02:34:05.121Z,0
2022-10-18T02:35:05.098Z,0.7
2022-10-18T02:36:05.098Z,0
2022-10-18T02:37:05.097Z,0.5
2022-10-18T02:38:05.111Z,0
2022-10-18T02:39:05.105Z,0
2022-10-18T02:40:05.092Z,0
2022-10-18T02:41:05.145Z,0
2022-10-18T02:42:05.111Z,0
2022-10-18T02:43:05.121Z,0
2022-10-18T02:44:05.095Z,0
2022-10-18T02:45:05.133Z,0
2022-10-18T02:46:05.129Z,0
2022-10-18T02:47:05.125Z,0
2022-10-18T02:48:05.162Z,0
2022-10-18T02:49:05.142Z,0
2022-10-18T02:50:05.150Z,0
2022-10-18T02:51:05.130Z,0
2022-10-18T02:52:05.122Z,0
2022-10-18T02:53:05.143Z,0
2022-10-18T02:54:05.135Z,0
2022-10-18T02:55:05.151Z,0
2022-10-18T02:56:05.130Z,0
2022-10-18T02:57:05.160Z,0
2022-10-18T02:58:05.149Z,0
2022-10-18T02:59:05.133Z,0
2022-10-18T03:00:05.343Z,0
2022-10-18T03:01:05.134Z,0
2022-10-18T03:02:05.139Z,0
2022-10-18T03:03:05.154Z,0
2022-10-18T03:04:05.182Z,0
2022-10-18T03:05:05.189Z,0
2022-10-18T03:06:05.154Z,0
2022-10-18T03:07:05.156Z,0
2022-10-18T03:08:05.177Z,0
2022-10-18T03:09:05.158Z,0
2022-10-18T03:10:05.214Z,0
2022-10-18T03:11:05.183Z,0
2022-10-18T03:12:05.211Z,0
2022-10-18T03:13:05.214Z,0
2022-10-18T03:14:05.182Z,0
2022-10-18T03:15:05.192Z,0
2022-10-18T03:16:05.186Z,0
2022-10-18T03:17:05.201Z,0
2022-10-18T03:18:05.194Z,0.5
2022-10-18T03:19:05.185Z,0
2022-10-18T03:20:05.177Z,0.8
2022-10-18T03:21:05.184Z,0
2022-10-18T03:22:05.192Z,0.7
2022-10-18T03:23:05.214Z,0.8
2022-10-18T03:24:05.233Z,0.6
2022-10-18T03:25:05.215Z,0
2022-10-18T03:26:05.214Z,0
2022-10-18T03:27:05.215Z,0.5
2022-10-18T03:28:05.253Z,0
2022-10-18T03:29:05.310Z,0.5
2022-10-18T03:30:05.237Z,0
2022-10-18T03:31:05.216Z,0
2022-10-18T03:32:05.218Z,0
2022-10-18T03:33:05.263Z,0.5
2022-10-18T03:34:05.239Z,0
2022-10-18T03:35:05.223Z,0
2022-10-18T03:36:05.221Z,0.8
2022-10-18T03:37:05.513Z,0.5
2022-10-18T03:38:05.225Z,0
2022-10-18T03:39:05.216Z,0
2022-10-18T03:40:05.240Z,0
2022-10-18T03:41:05.262Z,0
2022-10-18T03:42:05.256Z,0
2022-10-18T03:43:05.252Z,0
2022-10-18T03:44:05.261Z,0
2022-10-18T03:45:05.283Z,0
2022-10-18T03:46:05.252Z,0
2022-10-18T03:47:05.266Z,0
2022-10-18T03:48:05.294Z,0
2022-10-18T03:49:05.275Z,0
2022-10-18T03:50:05.290Z,0
2022-10-18T03:51:05.284Z,0
2022-10-18T03:52:05.297Z,0
2022-10-18T03:53:05.311Z,0
2022-10-18T03:54:05.291Z,0
2022-10-18T03:55:05.283Z,0.6
2022-10-18T03:56:05.300Z,0.5
2022-10-18T03:57:05.274Z,0.5
2022-10-18T03:58:05.307Z,0.8
2022-10-18T03:59:05.289Z,0
2022-10-18T04:00:05.279Z,0
2022-10-18T04:01:05.309Z,0
2022-10-18T04:02:05.333Z,0
2022-10-18T04:03:05.316Z,0
2022-10-18T04:04:05.288Z,0
2022-10-18T04:05:05.323Z,0
2022-10-18T04:06:05.304Z,0
2022-10-18T04:07:05.318Z,0
2022-10-18T04:08:05.331Z,0.6
2022-10-18T04:09:06.579Z,0
2022-10-18T04:10:05.309Z,0
2022-10-18T04:11:05.313Z,0
2022-10-18T04:12:05.311Z,0
2022-10-18T04:13:05.337Z,0
2022-10-18T04:14:05.310Z,0
2022-10-18T04:15:05.322Z,0
2022-10-18T04:16:05.315Z,0
2022-10-18T04:17:05.341Z,0
2022-10-18T04:18:05.339Z,0
2022-10-18T04:19:05.350Z,0
2022-10-18T04:20:05.330Z,0
2022-10-18T04:21:05.337Z,0
2022-10-18T04:22:05.363Z,0
2022-10-18T04:23:05.361Z,0
2022-10-18T04:24:05.347Z,0
2022-10-18T04:25:05.371Z,0
2022-10-18T04:26:05.366Z,0
2022-10-18T04:27:05.372Z,0
2022-10-18T04:28:05.380Z,0
2022-10-18T04:29:05.422Z,0
2022-10-18T04:30:05.694Z,0
2022-10-18T04:31:05.403Z,0
2022-10-18T04:32:05.411Z,0
2022-10-18T04:33:05.419Z,0
2022-10-18T04:34:05.400Z,0
2022-10-18T04:35:05.455Z,0
2022-10-18T04:36:05.407Z,0
2022-10-18T04:37:05.418Z,0
2022-10-18T04:38:05.441Z,0
2022-10-18T04:39:05.416Z,0
2022-10-18T04:40:05.409Z,0
2022-10-18T04:41:05.409Z,0
2022-10-18T04:42:05.414Z,0
2022-10-18T04:43:05.439Z,0
2022-10-18T04:44:05.412Z,0
2022-10-18T04:45:05.401Z,0
2022-10-18T04:46:05.431Z,0
2022-10-18T04:47:05.405Z,0
2022-10-18T04:48:05.429Z,0
2022-10-18T04:49:05.412Z,0
2022-10-18T04:50:05.442Z,0
2022-10-18T04:51:05.462Z,0
2022-10-18T04:52:05.422Z,0
2022-10-18T04:53:05.445Z,0
2022-10-18T04:54:05.423Z,0
2022-10-18T04:55:05.418Z,0
2022-10-18T04:56:05.431Z,0
2022-10-18T04:57:05.447Z,0
2022-10-18T04:58:05.434Z,0
2022-10-18T04:59:05.442Z,0
2022-10-18T05:00:05.430Z,0
2022-10-18T05:01:05.437Z,0
2022-10-18T05:02:05.484Z,0
2022-10-18T05:03:05.469Z,1.1
2022-10-18T05:04:05.445Z,0
2022-10-18T05:05:07.065Z,0
2022-10-18T05:06:05.465Z,0
2022-10-18T05:07:05.497Z,0
2022-10-18T05:08:05.478Z,0
2022-10-18T05:09:05.467Z,0
2022-10-18T05:10:05.471Z,0
2022-10-18T05:11:05.491Z,0
2022-10-18T05:12:05.465Z,0
2022-10-18T05:13:05.469Z,0
2022-10-18T05:14:05.470Z,0
2022-10-18T05:15:05.478Z,0
2022-10-18T05:16:05.496Z,0
2022-10-18T05:17:05.507Z,0
2022-10-18T05:18:05.492Z,0
2022-10-18T05:19:05.492Z,0
2022-10-18T05:20:05.564Z,0
2022-10-18T05:21:05.503Z,0
2022-10-18T05:22:05.526Z,0
2022-10-18T05:23:05.575Z,0
2022-10-18T05:24:05.496Z,0
2022-10-18T05:25:05.491Z,0
2022-10-18T05:26:05.728Z,0
2022-10-18T05:27:05.504Z,0
2022-10-18T05:28:06.398Z,0
2022-10-18T05:29:05.609Z,0
2022-10-18T05:30:05.866Z,0
2022-10-18T05:31:05.501Z,0
2022-10-18T05:32:05.501Z,0
2022-10-18T05:33:05.547Z,0
2022-10-18T05:34:05.514Z,0
2022-10-18T05:35:05.531Z,0
2022-10-18T05:36:05.534Z,0
2022-10-18T05:37:05.544Z,0
2022-10-18T05:38:05.558Z,0
2022-10-18T05:39:05.570Z,0
2022-10-18T05:40:05.534Z,0
2022-10-18T05:41:05.536Z,0
2022-10-18T05:42:05.540Z,0
2022-10-18T05:43:05.601Z,0
2022-10-18T05:44:05.557Z,0
2022-10-18T05:45:05.551Z,0
2022-10-18T05:46:08.199Z,0
2022-10-18T05:47:05.585Z,0
2022-10-18T05:48:05.888Z,0
2022-10-18T05:49:05.557Z,0
2022-10-18T05:50:05.556Z,0
2022-10-18T05:51:05.558Z,0
2022-10-18T05:52:05.548Z,0
2022-10-18T05:53:11.803Z,0
2022-10-18T05:54:05.562Z,0
2022-10-18T05:55:05.589Z,0
2022-10-18T05:56:05.600Z,0
2022-10-18T05:57:05.597Z,0
2022-10-18T05:58:05.593Z,0
2022-10-18T05:59:05.580Z,0
2022-10-18T06:00:05.600Z,0
2022-10-18T06:01:05.576Z,0
2022-10-18T06:02:05.638Z,0
2022-10-18T06:03:05.614Z,0
2022-10-18T06:04:05.593Z,0
2022-10-18T06:05:05.588Z,0
2022-10-18T06:06:05.603Z,0
2022-10-18T06:07:05.592Z,0
2022-10-18T06:08:07.894Z,0
2022-10-18T06:09:05.601Z,0
2022-10-18T06:10:05.654Z,0
2022-10-18T06:11:05.629Z,0
2022-10-18T06:12:05.602Z,0
2022-10-18T06:13:05.647Z,0
2022-10-18T06:14:05.615Z,0
2022-10-18T06:15:05.613Z,0
2022-10-18T06:16:05.606Z,0
2022-10-18T06:17:05.654Z,0
2022-10-18T06:18:05.625Z,0
2022-10-18T06:19:05.647Z,0
2022-10-18T06:20:05.633Z,0
2022-10-18T06:21:05.633Z,0
2022-10-18T06:22:05.652Z,0
2022-10-18T06:23:05.643Z,0
2022-10-18T06:24:05.648Z,0.5
2022-10-18T06:25:05.680Z,0.5
2022-10-18T06:26:05.677Z,0
2022-10-18T06:28:06.822Z,0
2022-10-18T06:29:05.656Z,0.5
2022-10-18T06:30:05.649Z,0.8
2022-10-18T06:31:05.657Z,0.8
2022-10-18T06:32:05.644Z,0.7
2022-10-18T06:33:05.660Z,0.5
2022-10-18T06:34:05.676Z,1
2022-10-18T06:35:05.738Z,0.6
2022-10-18T06:36:05.663Z,0.9
2022-10-18T06:37:05.679Z,0.5
2022-10-18T06:38:05.677Z,0.6
2022-10-18T06:39:05.696Z,0
2022-10-18T06:40:05.695Z,0.8
2022-10-18T06:41:05.697Z,0
2022-10-18T06:42:05.683Z,0.6
2022-10-18T06:43:16.459Z,0.6
2022-10-18T06:44:05.701Z,0.6
2022-10-18T06:45:05.695Z,0
2022-10-18T06:46:05.697Z,0.5
2022-10-18T06:47:05.687Z,0
2022-10-18T06:48:05.784Z,0
2022-10-18T06:49:05.700Z,0
2022-10-18T06:50:05.692Z,0
2022-10-18T06:51:05.704Z,0
2022-10-18T06:52:05.688Z,0
2022-10-18T06:53:05.705Z,0
2022-10-18T06:54:17.199Z,0
2022-10-18T06:55:09.046Z,0
2022-10-18T06:56:05.688Z,0
2022-10-18T06:57:05.696Z,0
2022-10-18T06:58:05.737Z,0
2022-10-18T06:59:05.746Z,0
2022-10-18T07:00:05.715Z,1.2
2022-10-18T07:01:05.707Z,0
2022-10-18T07:02:05.791Z,0
2022-10-18T07:03:05.735Z,0
2022-10-18T07:04:05.727Z,0
2022-10-18T07:05:05.710Z,0
2022-10-18T07:06:05.729Z,0
2022-10-18T07:07:05.721Z,0
2022-10-18T07:08:05.724Z,0
2022-10-18T07:09:05.710Z,0
2022-10-18T07:10:05.715Z,0.5
2022-10-18T07:11:05.732Z,0
2022-10-18T07:12:05.745Z,0.5
2022-10-18T07:13:30.707Z,0
2022-10-18T07:14:05.729Z,0
2022-10-18T07:15:09.291Z,0.5
2022-10-18T07:16:05.845Z,0.7
2022-10-18T07:17:05.750Z,0.5
2022-10-18T07:18:05.770Z,0
2022-10-18T07:19:05.771Z,0
2022-10-18T07:20:05.750Z,0
2022-10-18T07:21:05.751Z,0
2022-10-18T07:22:05.766Z,0
2022-10-18T07:23:05.760Z,0
2022-10-18T07:24:05.772Z,0
2022-10-18T07:25:05.774Z,0
2022-10-18T07:26:05.761Z,0
2022-10-18T07:27:05.784Z,0
2022-10-18T07:28:05.795Z,0
2022-10-18T07:29:05.908Z,0
2022-10-18T07:30:05.797Z,0
2022-10-18T07:31:06.026Z,0
2022-10-18T07:32:05.796Z,0
2022-10-18T07:33:05.951Z,0
2022-10-18T07:34:05.805Z,0
2022-10-18T07:35:05.835Z,0
2022-10-18T07:36:05.821Z,0
2022-10-18T07:37:05.813Z,0
2022-10-18T07:38:05.844Z,0
2022-10-18T07:39:05.841Z,0
2022-10-18T07:40:05.831Z,0
2022-10-18T07:41:05.854Z,0
2022-10-18T07:42:05.843Z,0
2022-10-18T07:43:07.499Z,0
2022-10-18T07:44:05.849Z,0
2022-10-18T07:45:05.843Z,0
2022-10-18T07:46:05.857Z,0
2022-10-18T07:47:05.875Z,0.8
2022-10-18T07:48:05.859Z,0.5
2022-10-18T07:49:05.854Z,0.5
2022-10-18T07:50:05.855Z,0.7
2022-10-18T07:51:05.855Z,0.7
2022-10-18T07:52:05.858Z,0
2022-10-18T07:53:05.874Z,0
2022-10-18T07:54:05.873Z,0
2022-10-18T07:55:05.873Z,0
2022-10-18T07:56:07.225Z,0
2022-10-18T07:57:05.904Z,0
2022-10-18T07:58:05.904Z,0
2022-10-18T07:59:05.891Z,0.9
2022-10-18T08:00:05.925Z,0
2022-10-18T08:01:06.145Z,0
2022-10-18T08:02:06.003Z,0
2022-10-18T08:03:05.928Z,0
2022-10-18T08:04:07.849Z,0
2022-10-18T08:05:05.942Z,0
2022-10-18T08:06:05.928Z,0
2022-10-18T08:07:05.923Z,0
2022-10-18T08:08:07.256Z,0
2022-10-18T08:09:05.922Z,0
2022-10-18T08:10:05.931Z,0
2022-10-18T08:11:05.932Z,0
2022-10-18T08:12:05.920Z,0
2022-10-18T08:13:05.945Z,0
2022-10-18T08:14:05.920Z,0
2022-10-18T08:15:05.956Z,0
2022-10-18T08:16:05.940Z,0
2022-10-18T08:17:05.951Z,0
2022-10-18T08:18:05.999Z,0
2022-10-18T08:19:05.965Z,0
2022-10-18T08:20:12.544Z,0
2022-10-18T08:21:05.942Z,0.5
2022-10-18T08:22:05.945Z,0
2022-10-18T08:23:05.952Z,0
2022-10-18T08:24:05.958Z,0
2022-10-18T08:25:06.056Z,0.5
2022-10-18T08:26:05.941Z,0.6
2022-10-18T08:27:05.972Z,0.8
2022-10-18T08:28:05.972Z,0
2022-10-18T08:30:05.956Z,0.8
2022-10-18T08:31:05.989Z,0.7
2022-10-18T08:32:06.013Z,0.6
2022-10-18T08:33:06.000Z,0.8
2022-10-18T08:34:06.004Z,0
2022-10-18T08:35:06.964Z,0
2022-10-18T08:36:06.026Z,1.1
2022-10-18T08:37:05.996Z,0.5
2022-10-18T08:38:06.014Z,0.9
2022-10-18T08:39:05.992Z,0.7
2022-10-18T08:40:05.977Z,0.6
2022-10-18T08:41:05.995Z,0.5
2022-10-18T08:42:06.009Z,0
2022-10-18T08:43:05.995Z,0.5
2022-10-18T08:44:07.076Z,1.1
2022-10-18T08:45:12.485Z,0.7
2022-10-18T08:46:05.987Z,1.1
2022-10-18T08:47:06.009Z,0
2022-10-18T08:48:06.001Z,0
2022-10-18T08:49:05.996Z,0
2022-10-18T08:50:06.001Z,0
2022-10-18T08:51:06.029Z,0.7
2022-10-18T08:52:06.033Z,0.5
2022-10-18T08:53:06.020Z,0
2022-10-18T08:54:06.019Z,0
2022-10-18T08:55:06.035Z,0
2022-10-18T08:56:06.027Z,0
2022-10-18T08:57:06.009Z,0.7
2022-10-18T08:58:06.174Z,0
2022-10-18T08:59:06.007Z,0
2022-10-18T09:00:06.012Z,0
2022-10-18T09:01:06.020Z,0
2022-10-18T09:02:06.015Z,1.2
2022-10-18T09:03:06.107Z,0.5
2022-10-18T09:04:06.025Z,0.8
2022-10-18T09:05:06.072Z,0.6
2022-10-18T09:06:06.056Z,0.5
2022-10-18T09:07:06.053Z,0.5
2022-10-18T09:08:06.044Z,1.1
2022-10-18T09:09:06.030Z,0.9
2022-10-18T09:10:06.133Z,0
2022-10-18T09:11:06.061Z,0
2022-10-18T09:12:06.051Z,0
2022-10-18T09:13:06.050Z,0
2022-10-18T09:14:06.076Z,0.5
2022-10-18T09:15:06.059Z,0
2022-10-18T09:16:06.059Z,0.7
2022-10-18T09:17:06.055Z,0
2022-10-18T09:18:06.070Z,0
2022-10-18T09:19:06.065Z,0
2022-10-18T09:20:06.107Z,0
2022-10-18T09:21:06.094Z,0
2022-10-18T09:22:07.414Z,0
2022-10-18T09:23:06.141Z,0
2022-10-18T09:24:06.089Z,0
2022-10-18T09:25:06.114Z,1
2022-10-18T09:26:06.097Z,1.5
2022-10-18T09:27:06.122Z,1.1
2022-10-18T09:28:06.107Z,1
2022-10-18T09:29:06.192Z,1.1
2022-10-18T09:30:06.112Z,1.2
2022-10-18T09:31:06.096Z,0
2022-10-18T09:32:06.102Z,0
2022-10-18T09:33:06.107Z,1.1
2022-10-18T09:34:06.094Z,2.9
2022-10-18T09:35:06.110Z,1.7
2022-10-18T09:36:06.242Z,1
2022-10-18T09:37:06.104Z,0.9
2022-10-18T09:38:06.156Z,1.3
2022-10-18T09:39:06.137Z,1.5
2022-10-18T09:40:06.130Z,1.1
2022-10-18T09:41:06.130Z,0.7
2022-10-18T09:42:06.132Z,2.4
2022-10-18T09:43:06.126Z,0.9
2022-10-18T09:44:06.157Z,0.6
2022-10-18T09:45:06.127Z,0
2022-10-18T09:46:06.123Z,0
2022-10-18T09:47:06.137Z,1.2
2022-10-18T09:48:06.304Z,0
2022-10-18T09:49:06.146Z,0.5
2022-10-18T09:50:06.197Z,0.8
2022-10-18T09:51:06.161Z,0.5
2022-10-18T09:52:06.162Z,0.8
2022-10-18T09:53:06.166Z,1
2022-10-18T09:54:06.181Z,0
2022-10-18T09:55:06.202Z,0
2022-10-18T09:56:06.176Z,0.6
2022-10-18T09:57:06.212Z,0.5
2022-10-18T09:58:06.217Z,0
2022-10-18T09:59:06.193Z,0
2022-10-18T10:00:06.201Z,0
2022-10-18T10:01:06.198Z,0
2022-10-18T10:02:06.270Z,0.6
2022-10-18T10:03:06.217Z,0.9
2022-10-18T10:04:06.241Z,0
2022-10-18T10:05:06.263Z,0
2022-10-18T10:06:06.216Z,0
2022-10-18T10:07:06.213Z,0
2022-10-18T10:08:06.275Z,0
2022-10-18T10:09:06.231Z,0.6
2022-10-18T10:10:06.228Z,0.7
2022-10-18T10:11:06.246Z,0.6
2022-10-18T10:12:06.234Z,1.5
2022-10-18T10:13:06.233Z,0
2022-10-18T10:14:06.294Z,0
2022-10-18T10:15:06.235Z,0
2022-10-18T10:16:06.225Z,0
2022-10-18T10:17:06.243Z,0.5
2022-10-18T10:18:06.307Z,1
2022-10-18T10:19:06.242Z,1
2022-10-18T10:20:06.254Z,0
2022-10-18T10:21:06.246Z,0.8
2022-10-18T10:22:06.297Z,0
2022-10-18T10:23:06.291Z,0
2022-10-18T10:24:06.250Z,0
2022-10-18T10:25:06.243Z,0
2022-10-18T10:26:06.250Z,0
2022-10-18T10:27:06.287Z,0
2022-10-18T10:28:06.316Z,0.5
2022-10-18T10:29:09.946Z,0
2022-10-18T10:30:07.391Z,0.8
2022-10-18T10:31:06.262Z,0
2022-10-18T10:32:06.270Z,0.5
2022-10-18T10:33:06.294Z,0
2022-10-18T10:34:06.289Z,0.8
2022-10-18T10:35:06.550Z,0.8
2022-10-18T10:36:06.295Z,0
2022-10-18T10:37:06.288Z,1.9
2022-10-18T10:38:06.363Z,2
2022-10-18T10:39:06.300Z,1
2022-10-18T10:40:17.631Z,2.4
2022-10-18T10:41:06.308Z,4
2022-10-18T10:42:07.918Z,1.8
2022-10-18T10:43:13.156Z,0.8
2022-10-18T10:44:06.314Z,0.8
2022-10-18T10:45:06.300Z,2.3
2022-10-18T10:46:06.310Z,0.5
2022-10-18T10:47:06.294Z,0.6
2022-10-18T10:48:06.315Z,1
2022-10-18T10:49:38.983Z,2.4
2022-10-18T10:50:06.298Z,2.1
2022-10-18T10:51:06.295Z,0.8
2022-10-18T10:52:25.803Z,0.7
2022-10-18T10:53:06.311Z,0
2022-10-18T10:54:06.316Z,1.1
2022-10-18T10:55:23.477Z,1.5
2022-10-18T10:56:06.305Z,1.8
2022-10-18T10:57:06.305Z,1.5
2022-10-18T10:58:06.323Z,2.4
2022-10-18T10:59:06.366Z,1.9
2022-10-18T11:00:06.320Z,2.5
2022-10-18T11:01:07.827Z,1.5
2022-10-18T11:02:06.305Z,0.7
2022-10-18T11:03:24.044Z,1.1
2022-10-18T11:04:06.343Z,2.4
2022-10-18T11:05:06.312Z,0.5
2022-10-18T11:06:06.324Z,2.4
2022-10-18T11:07:06.310Z,2.4
2022-10-18T11:08:06.330Z,0
2022-10-18T11:09:06.340Z,0.7
2022-10-18T11:10:06.334Z,0.8
2022-10-18T11:11:06.329Z,2.4
2022-10-18T11:12:06.341Z,0.9
2022-10-18T11:13:06.340Z,1.3
2022-10-18T11:14:24.515Z,2.4
2022-10-18T11:15:06.379Z,2.4
2022-10-18T11:16:06.402Z,2.7
2022-10-18T11:17:08.039Z,2.4
2022-10-18T11:18:06.381Z,2.4
2022-10-18T11:19:06.352Z,0.8
2022-10-18T11:20:06.351Z,2.4
2022-10-18T11:21:06.372Z,2.4
2022-10-18T11:22:06.369Z,1.3
2022-10-18T11:23:06.401Z,0.9
2022-10-18T11:24:06.383Z,2.4
2022-10-18T11:25:06.396Z,1.5
2022-10-18T11:26:06.368Z,3.4
2022-10-18T11:27:06.381Z,1.6
2022-10-18T11:28:06.387Z,2.4
2022-10-18T11:29:06.392Z,1.6
2022-10-18T11:30:06.404Z,2.2
2022-10-18T11:31:06.417Z,1.9
2022-10-18T11:32:06.382Z,1
2022-10-18T11:33:06.392Z,1.5
2022-10-18T11:34:10.257Z,2.5
2022-10-18T11:35:06.384Z,0.8
2022-10-18T11:36:06.401Z,2.5
2022-10-18T11:38:06.413Z,2.2
2022-10-18T11:39:06.398Z,0
2022-10-18T11:40:06.413Z,1.3
2022-10-18T11:41:06.421Z,0.6
2022-10-18T11:42:06.413Z,0
2022-10-18T11:43:06.428Z,1.9
2022-10-18T11:44:06.447Z,1.5
2022-10-18T11:45:06.429Z,3.4
2022-10-18T11:46:06.447Z,2.4
2022-10-18T11:47:06.456Z,2.4
2022-10-18T11:48:06.467Z,1.8
2022-10-18T11:49:06.464Z,1
2022-10-18T11:50:06.442Z,0
2022-10-18T11:51:06.443Z,0
2022-10-18T11:52:08.892Z,0
2022-10-18T11:53:06.445Z,1
2022-10-18T11:54:06.429Z,1.3
2022-10-18T11:55:06.445Z,2.5
2022-10-18T11:56:06.439Z,2.4
2022-10-18T11:57:06.445Z,1.9
2022-10-18T11:58:06.469Z,2.9
2022-10-18T11:59:06.461Z,2.6
2022-10-18T12:00:06.449Z,2.5
2022-10-18T12:01:06.452Z,4
2022-10-18T12:02:06.439Z,0.8
2022-10-18T12:03:06.550Z,3.4
2022-10-18T12:04:06.486Z,2.6
2022-10-18T12:06:06.462Z,1.2
2022-10-18T12:07:06.453Z,0.9
2022-10-18T12:08:06.607Z,2.6
2022-10-18T12:09:06.468Z,2.5
2022-10-18T12:10:06.468Z,2.4
2022-10-18T12:11:06.943Z,2.1
2022-10-18T12:12:06.469Z,1.8
2022-10-18T12:13:06.493Z,1.6
2022-10-18T12:14:06.481Z,2.3
2022-10-18T12:15:06.478Z,2.6
2022-10-18T12:16:06.519Z,1.6
2022-10-18T12:17:39.195Z,2.1
2022-10-18T12:18:06.504Z,1.5
2022-10-18T12:19:06.515Z,2.4
2022-10-18T12:20:06.523Z,2.1
2022-10-18T12:21:06.512Z,0.6
2022-10-18T12:22:06.537Z,2.5
2022-10-18T12:23:06.524Z,3.4
2022-10-18T12:24:06.520Z,2.4
2022-10-18T12:25:06.514Z,1.9
2022-10-18T12:26:06.505Z,2.5
2022-10-18T12:27:06.507Z,2.4
2022-10-18T12:28:06.553Z,4.4
2022-10-18T12:29:06.600Z,2.2
2022-10-18T12:30:06.510Z,2.1
2022-10-18T12:31:06.524Z,2.4
2022-10-18T12:32:06.523Z,2.5
2022-10-18T12:33:23.457Z,2.5
2022-10-18T12:34:06.516Z,2.7
2022-10-18T12:35:06.549Z,2.4
2022-10-18T12:36:06.538Z,2.5
2022-10-18T12:37:06.532Z,2.2
2022-10-18T12:38:06.556Z,2.4
2022-10-18T12:39:06.544Z,1.8
2022-10-18T12:40:12.323Z,1
2022-10-18T12:41:06.552Z,1.1
2022-10-18T12:42:06.554Z,2.4
2022-10-18T12:43:06.584Z,0.9
2022-10-18T12:44:06.551Z,1.2
2022-10-18T12:45:06.575Z,1.5
2022-10-18T12:46:10.831Z,0.7
2022-10-18T12:47:06.553Z,0.8
2022-10-18T12:48:06.572Z,2.1
2022-10-18T12:49:06.583Z,1.6
2022-10-18T12:50:06.604Z,1.2
2022-10-18T12:51:06.592Z,1.1
2022-10-18T12:52:06.620Z,2.4
2022-10-18T12:53:06.591Z,1.9
2022-10-18T12:54:06.572Z,0.9
2022-10-18T12:55:06.581Z,2.4
2022-10-18T12:56:06.581Z,2.2
2022-10-18T12:57:06.575Z,1.8
2022-10-18T12:58:06.638Z,0.8
2022-10-18T12:59:06.592Z,0
2022-10-18T13:00:06.652Z,0.8
2022-10-18T13:01:06.672Z,1.6
2022-10-18T13:02:06.591Z,1.6
2022-10-18T13:03:06.614Z,2.4
2022-10-18T13:04:06.599Z,1.5
2022-10-18T13:05:12.264Z,2.4
2022-10-18T13:06:06.979Z,1.9
2022-10-18T13:07:06.620Z,1
2022-10-18T13:08:06.616Z,0.8
2022-10-18T13:09:06.601Z,2.1
2022-10-18T13:10:06.605Z,1.2
2022-10-18T13:11:06.604Z,1.8
2022-10-18T13:12:06.613Z,1.2
2022-10-18T13:13:19.330Z,2.4
2022-10-18T13:14:06.672Z,1
2022-10-18T13:15:21.022Z,0.6
2022-10-18T13:16:06.631Z,0.7
2022-10-18T13:17:06.630Z,1
2022-10-18T13:18:06.671Z,1
2022-10-18T13:19:06.642Z,1.2
2022-10-18T13:20:24.899Z,2.1
2022-10-18T13:21:06.652Z,1.2
2022-10-18T13:22:06.645Z,0.8
2022-10-18T13:23:06.743Z,1.1
2022-10-18T13:24:06.651Z,0.8
2022-10-18T13:25:06.657Z,0.8
2022-10-18T13:26:06.655Z,0
2022-10-18T13:27:24.291Z,0.5
2022-10-18T13:28:06.706Z,0
2022-10-18T13:29:06.759Z,0.8
2022-10-18T13:30:06.669Z,0
2022-10-18T13:31:06.695Z,0.6
2022-10-18T13:32:06.722Z,1.2
2022-10-18T13:33:06.689Z,1
2022-10-18T13:34:06.677Z,0.9
2022-10-18T13:35:06.686Z,1.2
2022-10-18T13:36:06.685Z,0.8
2022-10-18T13:37:06.681Z,2.4
2022-10-18T13:38:06.711Z,2.1
2022-10-18T13:39:06.717Z,1.1
2022-10-18T13:40:06.681Z,2.6
2022-10-18T13:41:06.680Z,2.4
2022-10-18T13:42:06.680Z,2.5
2022-10-18T13:43:06.692Z,2.4
2022-10-18T13:44:06.678Z,2.4
2022-10-18T13:45:06.696Z,2.4
2022-10-18T13:46:06.702Z,3.2
2022-10-18T13:47:06.962Z,2.2
2022-10-18T13:48:06.702Z,2.4
2022-10-18T13:49:06.692Z,2.4
2022-10-18T13:50:06.708Z,2.6
2022-10-18T13:51:06.716Z,2.6
2022-10-18T13:52:06.711Z,2.1
2022-10-18T13:53:06.719Z,2.4
2022-10-18T13:54:06.701Z,1.9
2022-10-18T13:55:06.742Z,1
2022-10-18T13:56:06.719Z,2.7
2022-10-18T13:57:06.817Z,2.6
2022-10-18T13:58:06.711Z,2.5
2022-10-18T13:59:14.224Z,1.3
2022-10-18T14:00:06.729Z,2.7
2022-10-18T14:01:06.791Z,2.4
2022-10-18T14:02:06.769Z,3.1
2022-10-18T14:03:10.095Z,2.4
2022-10-18T14:04:06.712Z,2.4
2022-10-18T14:05:23.314Z,1.3
2022-10-18T14:06:06.728Z,4.4
2022-10-18T14:07:06.740Z,3.4
2022-10-18T14:08:10.269Z,3.2
2022-10-18T14:09:09.775Z,2.5
2022-10-18T14:10:06.733Z,2.4
2022-10-18T14:11:06.754Z,2.4
2022-10-18T14:12:06.773Z,2.4
2022-10-18T14:13:06.737Z,2.7
2022-10-18T14:14:06.755Z,1.1
2022-10-18T14:15:06.736Z,1.1
2022-10-18T14:16:06.750Z,1.9
2022-10-18T14:17:06.730Z,2
2022-10-18T14:18:06.775Z,1.6
2022-10-18T14:19:06.764Z,0.7
2022-10-18T14:20:06.746Z,1.6
2022-10-18T14:21:13.592Z,1.8
2022-10-18T14:22:06.775Z,0.8
2022-10-18T14:23:06.810Z,1.2
2022-10-18T14:24:06.767Z,0.8
2022-10-18T14:25:06.765Z,1.1
2022-10-18T14:26:06.766Z,0.8
2022-10-18T14:27:06.812Z,0.5